Time;durP1;ratioP1;P1;durP2;ratioP2;P2;SDS_P1;SDS_P2;PMS_P1;PMS_P2;Temp;Humidity;BMP_temperature;BMP_pressure;BME280_temperature;BME280_humidity;BME280_pressure;Samples;Min_cycle;Max_cycle;Signal;HPM_P1;HPM_P2
2023/01/22 11:43:54;;;;;;;18.25;9.65;;;;;;;2.66;76.72;98582.31;10618400;27;20649;-76
2023/01/22 11:49:48;;;;;;;16.02;9.45;;;;;;;2.67;77.52;98566.53;10601427;27;21258;-77
2023/01/22 11:55:53;;;;;;;17.85;11.38;;;;;;;2.68;76.66;98551.47;10573332;28;20097;-77
2023/01/22 12:01:42;;;;;;;14.70;9.70;;;;;;;2.68;78.23;98563.25;10574183;28;20047;-77
2023/01/22 12:07:35;;;;;;;14.50;9.02;;;;;;;2.57;77.94;98553.13;10559978;28;20085;-76
2023/01/22 12:13:12;;;;;;;14.50;8.73;;;;;;;2.60;79.10;98559.59;10575277;28;20040;-77
2023/01/22 12:18:57;;;;;;;17.25;8.88;;;;;;;2.61;78.51;98563.13;10573620;28;20473;-77
2023/01/22 12:24:24;;;;;;;13.77;8.90;;;;;;;2.45;79.08;98578.59;10574387;28;20442;-78
2023/01/22 12:30:26;;;;;;;15.95;9.95;;;;;;;2.34;79.73;98579.47;10559387;28;20089;-78
2023/01/22 12:35:49;;;;;;;17.85;8.95;;;;;;;2.36;80.56;98587.97;10555873;28;20052;-78
2023/01/22 12:41:34;;;;;;;16.23;9.27;;;;;;;2.36;80.13;98592.72;10558622;28;20060;-77
2023/01/22 12:46:58;;;;;;;14.95;8.48;;;;;;;2.43;80.54;98592.16;10598303;28;20040;-80
2023/01/22 12:52:41;;;;;;;10.77;6.37;;;;;;;2.41;79.77;98589.88;10602203;28;20500;-79
2023/01/22 12:58:03;;;;;;;17.17;9.60;;;;;;;2.36;80.67;98598.25;10569173;28;20075;-77
2023/01/22 13:03:35;;;;;;;13.80;8.52;;;;;;;2.35;80.60;98605.00;10549734;28;20042;-78
2023/01/22 13:09:23;;;;;;;15.15;8.85;;;;;;;2.41;80.54;98598.16;10541533;28;20119;-77
2023/01/22 13:14:44;;;;;;;15.00;9.68;;;;;;;2.42;80.94;98593.41;10541177;28;20117;-77
2023/01/22 13:20:15;;;;;;;16.92;10.23;;;;;;;2.48;79.72;98605.09;10529264;28;20039;-77
2023/01/22 13:25:36;;;;;;;18.65;10.25;;;;;;;2.48;80.00;98619.63;10543537;28;20070;-76
2023/01/22 13:31:02;;;;;;;18.52;10.40;;;;;;;2.60;80.27;98625.75;10570674;28;20067;-77
2023/01/22 13:36:24;;;;;;;18.38;10.52;;;;;;;2.58;80.62;98631.78;10540641;28;20121;-77
2023/01/22 13:41:47;;;;;;;17.23;10.13;;;;;;;2.58;80.65;98631.78;10555647;28;20405;-77
2023/01/22 13:47:27;;;;;;;14.52;9.80;;;;;;;2.57;80.71;98633.06;10539902;28;20063;-77
2023/01/22 13:52:49;;;;;;;19.00;10.85;;;;;;;2.59;83.49;98636.03;10553589;28;20047;-74
2023/01/22 13:58:41;;;;;;;18.38;10.35;;;;;;;2.53;84.01;98635.38;10555672;28;20069;-75
2023/01/22 14:04:23;;;;;;;16.95;9.93;;;;;;;2.45;84.45;98631.69;10554748;28;20439;-75
2023/01/22 14:09:44;;;;;;;14.90;9.02;;;;;;;2.43;83.35;98625.22;10568891;28;20069;-77
2023/01/22 14:15:14;;;;;;;16.25;9.98;;;;;;;2.44;83.60;98632.22;10554601;28;20473;-76
2023/01/22 14:20:38;;;;;;;17.05;9.68;;;;;;;2.46;83.56;98627.69;10582993;28;20397;-77
2023/01/22 14:26:04;;;;;;;15.55;9.50;;;;;;;2.43;82.20;98631.47;10554996;28;20060;-77
2023/01/22 14:31:25;;;;;;;17.15;9.77;;;;;;;2.25;81.07;98638.44;10553840;28;20089;-78
2023/01/22 14:36:48;;;;;;;15.70;9.85;;;;;;;2.27;81.33;98652.44;10540721;28;20473;-77
2023/01/22 14:42:09;;;;;;;18.05;10.27;;;;;;;2.26;81.53;98641.94;10553573;28;20059;-77
2023/01/22 14:47:30;;;;;;;16.88;9.45;;;;;;;2.23;81.15;98657.47;10553657;28;20043;-78
2023/01/22 14:52:51;;;;;;;16.02;10.30;;;;;;;2.18;80.84;98663.78;10553339;28;20048;-79
2023/01/22 14:58:12;;;;;;;14.85;8.95;;;;;;;2.13;81.49;98681.13;10550523;28;20040;-78
2023/01/22 15:03:32;;;;;;;14.68;9.60;;;;;;;2.00;81.49;98689.25;10567072;28;20056;-77
2023/01/22 15:08:53;;;;;;;14.88;9.32;;;;;;;2.03;81.57;98701.22;10553231;28;20458;-78
2023/01/22 15:14:14;;;;;;;17.45;9.93;;;;;;;2.00;81.89;98701.00;10553144;28;20065;-78
2023/01/22 15:19:35;;;;;;;18.77;10.45;;;;;;;1.91;81.56;98697.81;10552298;28;20047;-78
2023/01/22 15:25:01;;;;;;;18.00;11.10;;;;;;;1.92;81.21;98699.31;10553971;28;20036;-77
2023/01/22 15:30:22;;;;;;;20.05;11.05;;;;;;;1.83;81.35;98714.16;10552259;28;20050;-78
2023/01/22 15:35:43;;;;;;;17.20;10.25;;;;;;;1.76;81.58;98709.22;10552253;28;20050;-78
2023/01/22 15:41:22;;;;;;;19.60;10.75;;;;;;;1.80;81.61;98709.66;10580314;28;20047;-78
2023/01/22 15:46:43;;;;;;;20.20;11.73;;;;;;;1.83;81.83;98718.91;10552815;28;20447;-78
2023/01/22 15:52:04;;;;;;;18.52;10.55;;;;;;;1.83;81.56;98727.91;10538195;28;20108;-78
2023/01/22 15:57:25;;;;;;;18.63;10.00;;;;;;;1.81;81.96;98726.94;10551639;28;20043;-78
2023/01/22 16:02:46;;;;;;;19.15;11.50;;;;;;;1.75;81.63;98738.00;10565597;28;20044;-78
2023/01/22 16:08:06;;;;;;;21.50;12.02;;;;;;;1.77;81.87;98743.75;10565542;28;20393;-77
2023/01/22 16:13:27;;;;;;;17.10;10.48;;;;;;;1.70;81.99;98734.00;10565569;28;20036;-78
2023/01/22 16:18:48;;;;;;;20.83;11.95;;;;;;;1.77;81.42;98737.50;10551342;28;20040;-77
2023/01/22 16:24:09;;;;;;;18.58;10.52;;;;;;;1.75;81.69;98732.50;10551389;28;20039;-80
2023/01/22 16:29:30;;;;;;;18.80;10.55;;;;;;;1.77;81.99;98752.00;10572107;28;20406;-81
2023/01/22 16:34:51;;;;;;;19.77;11.75;;;;;;;1.74;81.43;98750.28;10588312;28;20046;-78
2023/01/22 16:40:13;;;;;;;22.83;13.05;;;;;;;1.68;81.68;98755.06;10558920;28;20063;-77
2023/01/22 16:45:34;;;;;;;21.67;11.95;;;;;;;1.69;81.93;98760.06;10572687;28;20036;-78
2023/01/22 16:50:55;;;;;;;23.23;12.18;;;;;;;1.77;81.67;98770.53;10558519;28;20039;-79
2023/01/22 16:56:16;;;;;;;23.55;12.80;;;;;;;1.75;81.27;98773.78;10557955;28;20036;-77
2023/01/22 17:01:37;;;;;;;26.88;15.52;;;;;;;1.76;81.81;98774.53;10557802;28;20416;-76
2023/01/22 17:07:01;;;;;;;23.38;12.65;;;;;;;1.76;81.66;98778.03;10558273;28;20054;-77
2023/01/22 17:12:23;;;;;;;23.40;13.70;;;;;;;1.72;82.07;98774.78;10571849;28;20047;-75
2023/01/22 17:17:44;;;;;;;25.20;13.45;;;;;;;1.69;81.96;98782.06;10557301;28;20096;-75
2023/01/22 17:23:05;;;;;;;27.00;14.63;;;;;;;1.70;82.05;98802.09;10556952;28;20043;-77
2023/01/22 17:28:26;;;;;;;26.20;14.52;;;;;;;1.67;81.55;98806.59;10585041;28;20074;-75
2023/01/22 17:33:47;;;;;;;27.55;15.27;;;;;;;1.64;81.76;98823.38;10556473;28;20044;-78
2023/01/22 17:39:13;;;;;;;26.23;15.55;;;;;;;1.62;81.67;98826.63;10570099;28;20093;-77
2023/01/22 17:44:34;;;;;;;25.33;13.50;;;;;;;1.61;82.32;98836.16;10570215;28;20044;-77
2023/01/22 17:49:54;;;;;;;23.73;12.73;;;;;;;1.71;82.17;98853.13;10555863;28;20047;-77
2023/01/22 17:55:15;;;;;;;23.83;13.55;;;;;;;1.68;81.85;98851.41;10584183;28;20036;-78
2023/01/22 18:00:37;;;;;;;30.25;15.93;;;;;;;1.65;81.87;98863.44;10542194;28;20366;-76
2023/01/22 18:05:58;;;;;;;30.38;15.25;;;;;;;1.63;81.67;98866.66;10569267;28;20067;-77
2023/01/22 18:11:20;;;;;;;27.95;15.70;;;;;;;1.59;81.82;98865.44;10554955;28;20044;-76
2023/01/22 18:16:41;;;;;;;28.17;16.05;;;;;;;1.57;82.10;98873.47;10554596;28;20112;-78
2023/01/22 18:22:02;;;;;;;29.05;14.95;;;;;;;1.52;81.60;98877.72;10554390;28;20039;-77
2023/01/22 18:27:24;;;;;;;27.13;14.95;;;;;;;1.53;81.81;98881.22;10554219;28;20050;-77
2023/01/22 18:32:45;;;;;;;29.88;15.77;;;;;;;1.59;81.92;98885.47;10554470;28;20044;-75
2023/01/22 18:38:06;;;;;;;27.48;14.85;;;;;;;1.59;81.74;98887.47;10554147;28;20040;-77
2023/01/22 18:43:27;;;;;;;23.73;13.70;;;;;;;1.60;81.64;98886.97;10567593;28;20131;-77
2023/01/22 18:48:51;;;;;;;26.83;13.52;;;;;;;1.63;81.84;98893.44;10553137;28;20474;-76
2023/01/22 18:54:12;;;;;;;29.33;15.10;;;;;;;1.66;81.52;98884.94;10567482;28;20481;-76
2023/01/22 18:59:33;;;;;;;26.27;14.50;;;;;;;1.67;82.21;98894.69;10567288;28;20492;-78
2023/01/22 19:04:54;;;;;;;24.60;12.73;;;;;;;1.71;81.56;98900.66;10553077;28;20054;-78
2023/01/22 19:10:15;;;;;;;27.90;14.77;;;;;;;1.69;82.32;98905.19;10567107;28;20492;-77
2023/01/22 19:15:36;;;;;;;28.55;14.30;;;;;;;1.67;81.45;98913.22;10567688;28;20069;-77
2023/01/22 19:21:18;;;;;;;24.25;12.93;;;;;;;1.67;81.71;98911.22;10567274;28;20108;-78
2023/01/22 19:26:40;;;;;;;27.27;13.15;;;;;;;1.72;81.66;98915.19;10552736;28;20040;-77
2023/01/22 19:32:01;;;;;;;24.95;12.95;;;;;;;1.72;81.56;98923.44;10552038;28;20092;-77
2023/01/22 19:37:23;;;;;;;28.63;16.13;;;;;;;1.65;81.84;98932.25;10538287;28;20044;-78
2023/01/22 19:42:45;;;;;;;27.30;15.38;;;;;;;1.65;81.47;98929.50;10551613;28;20058;-77
2023/01/22 19:48:06;;;;;;;28.30;17.00;;;;;;;1.70;81.71;98937.72;10551933;28;20031;-77
2023/01/22 19:53:28;;;;;;;30.25;16.27;;;;;;;1.78;81.64;98937.19;10550132;28;20489;-77
2023/01/22 19:58:49;;;;;;;24.98;14.05;;;;;;;1.78;81.95;98942.69;10551436;28;20473;-77
2023/01/22 20:04:19;;;;;;;23.70;13.98;;;;;;;1.73;81.67;98947.72;10570216;28;20039;-78
2023/01/22 20:09:40;;;;;;;31.83;17.73;;;;;;;1.69;81.42;98957.50;10572904;28;20469;-78
2023/01/22 20:15:02;;;;;;;26.48;13.32;;;;;;;1.65;81.59;98962.53;10557723;28;20177;-77
2023/01/22 20:20:24;;;;;;;47.10;24.25;;;;;;;1.70;81.49;98967.25;10571493;28;20042;-78
2023/01/22 20:25:45;;;;;;;22.90;12.45;;;;;;;1.69;81.59;98960.25;10557657;28;20042;-78
2023/01/22 20:31:08;;;;;;;22.10;12.13;;;;;;;1.66;81.47;98986.78;10559439;28;20051;-78
2023/01/22 20:36:29;;;;;;;22.65;12.52;;;;;;;1.62;81.93;98994.53;10549706;28;20040;-78
2023/01/22 20:41:52;;;;;;;26.98;13.70;;;;;;;1.66;81.94;98999.81;10541423;28;20060;-77
2023/01/22 20:47:13;;;;;;;24.90;12.98;;;;;;;1.66;82.02;99002.56;10555569;28;20498;-77
2023/01/22 20:52:34;;;;;;;26.77;14.52;;;;;;;1.59;81.58;99005.81;10549170;28;20062;-78
2023/01/22 20:57:55;;;;;;;26.02;13.15;;;;;;;1.65;81.77;99012.06;10567118;27;20094;-78
2023/01/22 21:03:16;;;;;;;31.20;14.73;;;;;;;1.68;81.44;99024.81;10550495;28;20062;-77
2023/01/22 21:08:37;;;;;;;28.55;15.02;;;;;;;1.72;81.53;99030.81;10553027;28;20035;-77
2023/01/22 21:13:59;;;;;;;26.88;14.90;;;;;;;1.73;81.79;99024.78;10563597;28;20087;-78
2023/01/22 21:19:28;;;;;;;29.58;15.23;;;;;;;1.77;81.81;99026.56;10552710;27;20043;-78
2023/01/22 21:24:49;;;;;;;28.98;15.68;;;;;;;1.76;81.80;99034.06;10538409;28;20055;-78
2023/01/22 21:30:10;;;;;;;28.42;14.82;;;;;;;1.70;81.86;99030.56;10547187;27;20114;-78
2023/01/22 21:35:31;;;;;;;25.90;14.48;;;;;;;1.72;81.85;99039.06;10561642;27;20404;-79
2023/01/22 21:40:52;;;;;;;23.88;12.75;;;;;;;1.72;81.78;99037.06;10560815;27;20056;-78
2023/01/22 21:46:23;;;;;;;25.85;13.48;;;;;;;1.70;81.46;99047.81;10548470;27;20039;-78
2023/01/22 21:51:50;;;;;;;25.38;12.77;;;;;;;1.68;81.92;99047.59;10562296;27;20039;-78
2023/01/22 21:57:12;;;;;;;25.17;13.40;;;;;;;1.70;81.99;99052.59;10556424;27;20048;-78
2023/01/22 22:02:33;;;;;;;24.88;14.18;;;;;;;1.76;81.68;99052.59;10559699;27;20040;-78
2023/01/22 22:07:54;;;;;;;28.25;14.23;;;;;;;1.70;81.91;99055.34;10564499;28;20047;-79
2023/01/22 22:13:16;;;;;;;27.88;13.90;;;;;;;1.71;81.69;99065.84;10552289;28;20404;-78
2023/01/22 22:18:38;;;;;;;27.45;14.13;;;;;;;1.73;81.74;99076.34;10552263;28;20036;-78
2023/01/22 22:24:00;;;;;;;24.63;13.75;;;;;;;1.74;81.93;99080.63;10548341;28;20067;-79
2023/01/22 22:29:21;;;;;;;25.67;13.27;;;;;;;1.77;82.07;99084.38;10564348;28;20129;-78
2023/01/22 22:34:41;;;;;;;26.50;13.80;;;;;;;1.73;82.02;99084.59;10543347;28;20043;-78
2023/01/22 22:40:03;;;;;;;29.40;14.50;;;;;;;1.76;81.64;99100.13;10544320;28;20069;-78
2023/01/22 22:45:24;;;;;;;25.63;13.23;;;;;;;1.76;82.00;99099.38;10550143;28;20397;-78
2023/01/22 22:50:45;;;;;;;27.35;14.70;;;;;;;1.79;81.69;99104.63;10553053;28;20050;-79
2023/01/22 22:56:07;;;;;;;23.83;13.68;;;;;;;1.75;81.77;99108.91;10550104;28;20069;-79
2023/01/22 23:01:30;;;;;;;27.48;14.35;;;;;;;1.79;81.89;99110.13;10564270;28;20105;-78
2023/01/22 23:06:50;;;;;;;27.67;14.82;;;;;;;1.74;81.84;99102.66;10550366;28;20133;-78
2023/01/22 23:12:11;;;;;;;27.88;15.60;;;;;;;1.80;81.63;99099.88;10506768;28;20044;-78
2023/01/22 23:17:32;;;;;;;26.98;14.63;;;;;;;1.77;81.71;99096.13;10532099;28;20039;-78
2023/01/22 23:22:56;;;;;;;30.48;15.18;;;;;;;1.74;82.19;99105.41;10566258;28;20479;-79
2023/01/22 23:28:17;;;;;;;29.52;14.52;;;;;;;1.69;81.95;99109.66;10552520;28;20059;-79
2023/01/22 23:33:38;;;;;;;27.73;14.43;;;;;;;1.69;82.16;99111.66;10551950;28;20044;-79
2023/01/22 23:38:59;;;;;;;29.02;15.10;;;;;;;1.64;82.20;99126.16;10537439;28;20101;-78
2023/01/22 23:44:20;;;;;;;25.05;13.18;;;;;;;1.61;82.10;99132.66;10537714;28;20043;-79
2023/01/22 23:49:41;;;;;;;25.30;12.80;;;;;;;1.63;81.93;99138.41;10551719;28;20044;-79
2023/01/22 23:55:02;;;;;;;21.55;11.13;;;;;;;1.61;82.18;99138.91;10551488;28;20044;-79
